sensor_id;sensor_type;location;lat;lon;timestamp;pressure;altitude;pressure_sealevel;temperature;humidity
79230;BME280;68663;49.122;17.544;2023-03-20T00:01:09;99415.91;;;22.70;51.44
79230;BME280;68663;49.122;17.544;2023-03-20T00:03:36;99417.88;;;22.73;51.08
79230;BME280;68663;49.122;17.544;2023-03-20T00:06:01;99417.84;;;22.76;51.05
79230;BME280;68663;49.122;17.544;2023-03-20T00:08:26;99419.06;;;22.75;51.21
79230;BME280;68663;49.122;17.544;2023-03-20T00:10:52;99423.53;;;22.73;51.11
79230;BME280;68663;49.122;17.544;2023-03-20T00:13:24;99413.09;;;22.70;51.17
79230;BME280;68663;49.122;17.544;2023-03-20T00:15:51;99419.91;;;22.72;51.19
79230;BME280;68663;49.122;17.544;2023-03-20T00:18:18;99415.44;;;22.75;51.17
79230;BME280;68663;49.122;17.544;2023-03-20T00:20:51;99417.00;;;22.79;51.06
79230;BME280;68663;49.122;17.544;2023-03-20T00:23:18;99409.75;;;22.82;51.00
79230;BME280;68663;49.122;17.544;2023-03-20T00:25:44;99413.81;;;22.77;51.14
79230;BME280;68663;49.122;17.544;2023-03-20T00:30:53;99407.78;;;22.75;51.08
79230;BME280;68663;49.122;17.544;2023-03-20T00:33:19;99410.56;;;22.79;50.96
79230;BME280;68663;49.122;17.544;2023-03-20T00:35:44;99407.75;;;22.79;50.88
79230;BME280;68663;49.122;17.544;2023-03-20T00:38:09;99417.00;;;22.83;50.81
79230;BME280;68663;49.122;17.544;2023-03-20T00:40:35;99403.28;;;22.85;50.95
79230;BME280;68663;49.122;17.544;2023-03-20T00:43:01;99404.88;;;22.86;50.86
79230;BME280;68663;49.122;17.544;2023-03-20T00:45:30;99398.44;;;22.85;50.95
79230;BME280;68663;49.122;17.544;2023-03-20T00:47:57;99399.25;;;22.86;51.01
79230;BME280;68663;49.122;17.544;2023-03-20T00:50:25;99405.34;;;22.81;51.40
79230;BME280;68663;49.122;17.544;2023-03-20T00:52:52;99403.34;;;22.78;51.33
79230;BME280;68663;49.122;17.544;2023-03-20T00:55:20;99409.38;;;22.76;51.49
79230;BME280;68663;49.122;17.544;2023-03-20T01:00:40;99415.88;;;22.73;51.36
79230;BME280;68663;49.122;17.544;2023-03-20T01:05:39;99410.56;;;22.79;51.24
79230;BME280;68663;49.122;17.544;2023-03-20T01:08:13;99406.56;;;22.76;51.35
79230;BME280;68663;49.122;17.544;2023-03-20T01:10:39;99409.81;;;22.75;51.39
79230;BME280;68663;49.122;17.544;2023-03-20T01:13:14;99410.66;;;22.72;51.36
79230;BME280;68663;49.122;17.544;2023-03-20T01:15:42;99417.88;;;22.73;51.62
79230;BME280;68663;49.122;17.544;2023-03-20T01:18:12;99413.81;;;22.77;51.25
79230;BME280;68663;49.122;17.544;2023-03-20T01:20:38;99410.56;;;22.79;51.20
79230;BME280;68663;49.122;17.544;2023-03-20T01:23:03;99407.38;;;22.80;51.04
79230;BME280;68663;49.122;17.544;2023-03-20T01:25:29;99411.34;;;22.83;51.14
79230;BME280;68663;49.122;17.544;2023-03-20T01:27:54;99410.13;;;22.84;51.07
79230;BME280;68663;49.122;17.544;2023-03-20T01:30:24;99420.25;;;22.81;51.24
79230;BME280;68663;49.122;17.544;2023-03-20T01:32:50;99417.00;;;22.79;51.48
79230;BME280;68663;49.122;17.544;2023-03-20T01:35:19;99414.22;;;22.76;51.75
79230;BME280;68663;49.122;17.544;2023-03-20T01:37:46;99416.66;;;22.74;51.75
79230;BME280;68663;49.122;17.544;2023-03-20T01:40:22;99415.50;;;22.71;51.76
79230;BME280;68663;49.122;17.544;2023-03-20T01:42:51;99413.84;;;22.74;51.44
79230;BME280;68663;49.122;17.544;2023-03-20T01:45:21;99415.84;;;22.77;51.29
79230;BME280;68663;49.122;17.544;2023-03-20T01:47:47;99414.59;;;22.78;51.31
79230;BME280;68663;49.122;17.544;2023-03-20T01:50:31;99411.38;;;22.79;51.36
79230;BME280;68663;49.122;17.544;2023-03-20T01:53:24;99413.81;;;22.81;51.40
79230;BME280;68663;49.122;17.544;2023-03-20T01:55:50;99412.97;;;22.84;51.24
79230;BME280;68663;49.122;17.544;2023-03-20T01:58:27;99406.53;;;22.83;51.31
79230;BME280;68663;49.122;17.544;2023-03-20T02:03:42;99411.78;;;22.78;51.70
79230;BME280;68663;49.122;17.544;2023-03-20T02:06:08;99415.84;;;22.77;51.75
79230;BME280;68663;49.122;17.544;2023-03-20T02:08:44;99420.25;;;22.78;51.82
79230;BME280;68663;49.122;17.544;2023-03-20T02:11:12;99415.41;;;22.78;51.56
79230;BME280;68663;49.122;17.544;2023-03-20T02:13:38;99417.41;;;22.81;51.44
79230;BME280;68663;49.122;17.544;2023-03-20T02:16:10;99415.41;;;22.82;51.37
79230;BME280;68663;49.122;17.544;2023-03-20T02:18:37;99414.56;;;22.85;51.47
79230;BME280;68663;49.122;17.544;2023-03-20T02:27:02;99417.84;;;22.80;51.63
79230;BME280;68663;49.122;17.544;2023-03-20T02:33:00;99419.06;;;22.75;51.72
79230;BME280;68663;49.122;17.544;2023-03-20T02:47:46;99414.56;;;22.85;51.69
79230;BME280;68663;49.122;17.544;2023-03-20T02:50:53;99416.97;;;22.86;51.42
79230;BME280;68663;49.122;17.544;2023-03-20T02:53:29;99419.81;;;22.83;51.83
79230;BME280;68663;49.122;17.544;2023-03-20T02:58:53;99415.03;;;22.76;51.84
79230;BME280;68663;49.122;17.544;2023-03-20T03:01:32;99417.03;;;22.76;52.17
79230;BME280;68663;49.122;17.544;2023-03-20T03:04:03;99415.84;;;22.77;51.76
79230;BME280;68663;49.122;17.544;2023-03-20T03:06:34;99413.38;;;22.79;51.72
79230;BME280;68663;49.122;17.544;2023-03-20T03:11:31;99423.44;;;22.83;51.57
79230;BME280;68663;49.122;17.544;2023-03-20T03:13:59;99417.38;;;22.85;51.55
79230;BME280;68663;49.122;17.544;2023-03-20T03:16:32;99421.00;;;22.85;51.55
79230;BME280;68663;49.122;17.544;2023-03-20T03:19:17;99422.59;;;22.86;51.65
79230;BME280;68663;49.122;17.544;2023-03-20T03:21:45;99417.38;;;22.85;51.81
79230;BME280;68663;49.122;17.544;2023-03-20T03:24:30;99415.41;;;22.82;52.29
79230;BME280;68663;49.122;17.544;2023-03-20T03:26:58;99414.59;;;22.78;52.79
79230;BME280;68663;49.122;17.544;2023-03-20T03:29:30;99414.66;;;22.74;52.77
79230;BME280;68663;49.122;17.544;2023-03-20T03:31:59;99413.06;;;22.73;52.24
79230;BME280;68663;49.122;17.544;2023-03-20T03:34:25;99412.63;;;22.75;52.07
79230;BME280;68663;49.122;17.544;2023-03-20T03:37:05;99418.66;;;22.77;51.90
79230;BME280;68663;49.122;17.544;2023-03-20T03:39:39;99423.47;;;22.80;51.78
79230;BME280;68663;49.122;17.544;2023-03-20T03:42:26;99416.19;;;22.82;51.71
79230;BME280;68663;49.122;17.544;2023-03-20T03:48:06;99417.38;;;22.85;51.69
79230;BME280;68663;49.122;17.544;2023-03-20T03:50:56;99424.19;;;22.87;51.36
79230;BME280;68663;49.122;17.544;2023-03-20T03:53:46;99429.88;;;22.84;51.64
79230;BME280;68663;49.122;17.544;2023-03-20T03:56:15;99431.50;;;22.81;52.01
79230;BME280;68663;49.122;17.544;2023-03-20T03:58:47;99437.16;;;22.78;52.04
79230;BME280;68663;49.122;17.544;2023-03-20T04:01:14;99429.91;;;22.77;51.99
79230;BME280;68663;49.122;17.544;2023-03-20T04:03:49;99434.34;;;22.78;51.88
79230;BME280;68663;49.122;17.544;2023-03-20T04:06:15;99417.84;;;22.80;51.61
79230;BME280;68663;49.122;17.544;2023-03-20T04:08:41;99429.13;;;22.80;51.68
79230;BME280;68663;49.122;17.544;2023-03-20T04:11:22;99434.75;;;22.80;51.68
79230;BME280;68663;49.122;17.544;2023-03-20T04:13:53;99428.28;;;22.83;51.73
79230;BME280;68663;49.122;17.544;2023-03-20T04:16:22;99425.47;;;22.79;52.40
79230;BME280;68663;49.122;17.544;2023-03-20T04:18:48;99431.53;;;22.78;52.38
79230;BME280;68663;49.122;17.544;2023-03-20T04:21:14;99426.34;;;22.73;52.43
79230;BME280;68663;49.122;17.544;2023-03-20T04:23:40;99424.69;;;22.75;52.22
79230;BME280;68663;49.122;17.544;2023-03-20T04:26:05;99429.91;;;22.77;52.08
79230;BME280;68663;49.122;17.544;2023-03-20T04:28:31;99434.75;;;22.80;51.82
79230;BME280;68663;49.122;17.544;2023-03-20T04:30:59;99432.31;;;22.82;51.85
79230;BME280;68663;49.122;17.544;2023-03-20T04:33:25;99433.91;;;22.83;51.99
79230;BME280;68663;49.122;17.544;2023-03-20T04:35:51;99444.38;;;22.82;51.88
79230;BME280;68663;49.122;17.544;2023-03-20T04:38:18;99447.63;;;22.81;51.99
79230;BME280;68663;49.122;17.544;2023-03-20T04:40:44;99438.75;;;22.79;52.22
79230;BME280;68663;49.122;17.544;2023-03-20T04:43:11;99439.59;;;22.76;52.18
79230;BME280;68663;49.122;17.544;2023-03-20T04:45:37;99441.25;;;22.73;52.25
79230;BME280;68663;49.122;17.544;2023-03-20T04:48:02;99438.00;;;22.75;53.11
79230;BME280;68663;49.122;17.544;2023-03-20T04:50:28;99436.34;;;22.77;52.63
79230;BME280;68663;49.122;17.544;2023-03-20T04:52:53;99436.34;;;22.81;52.43
79230;BME280;68663;49.122;17.544;2023-03-20T04:55:19;99435.13;;;22.82;52.59
79230;BME280;68663;49.122;17.544;2023-03-20T04:57:46;99439.56;;;22.83;52.57
79230;BME280;68663;49.122;17.544;2023-03-20T05:00:12;99439.56;;;22.83;52.70
79230;BME280;68663;49.122;17.544;2023-03-20T05:02:37;99439.56;;;22.83;52.93
79230;BME280;68663;49.122;17.544;2023-03-20T05:05:03;99448.00;;;22.83;52.85
79230;BME280;68663;49.122;17.544;2023-03-20T05:07:28;99456.47;;;22.79;52.87
79230;BME280;68663;49.122;17.544;2023-03-20T05:09:54;99464.97;;;22.76;53.18
79230;BME280;68663;49.122;17.544;2023-03-20T05:12:19;99471.44;;;22.73;53.08
79230;BME280;68663;49.122;17.544;2023-03-20T05:14:45;99466.22;;;22.71;53.18
79230;BME280;68663;49.122;17.544;2023-03-20T05:17:10;99468.66;;;22.69;53.40
79230;BME280;68663;49.122;17.544;2023-03-20T05:19:36;99469.41;;;22.73;53.34
79230;BME280;68663;49.122;17.544;2023-03-20T05:22:03;99473.41;;;22.76;53.24
79230;BME280;68663;49.122;17.544;2023-03-20T05:24:28;99480.66;;;22.77;53.21
79230;BME280;68663;49.122;17.544;2023-03-20T05:26:54;99471.78;;;22.78;53.47
79230;BME280;68663;49.122;17.544;2023-03-20T05:29:20;99468.16;;;22.78;53.50
79230;BME280;68663;49.122;17.544;2023-03-20T05:31:45;99473.00;;;22.81;53.76
79230;BME280;68663;49.122;17.544;2023-03-20T05:34:11;99470.19;;;22.81;53.84
79230;BME280;68663;49.122;17.544;2023-03-20T05:36:36;99478.22;;;22.79;53.95
79230;BME280;68663;49.122;17.544;2023-03-20T05:39:02;99475.81;;;22.77;54.11
79230;BME280;68663;49.122;17.544;2023-03-20T05:41:27;99488.72;;;22.75;54.03
79230;BME280;68663;49.122;17.544;2023-03-20T05:43:53;99490.38;;;22.72;54.33
79230;BME280;68663;49.122;17.544;2023-03-20T05:46:18;99482.28;;;22.74;54.29
79230;BME280;68663;49.122;17.544;2023-03-20T05:48:43;99482.28;;;22.74;54.16
79230;BME280;68663;49.122;17.544;2023-03-20T05:51:09;99494.38;;;22.75;53.93
79230;BME280;68663;49.122;17.544;2023-03-20T05:53:34;99495.97;;;22.76;53.64
79230;BME280;68663;49.122;17.544;2023-03-20T05:56:00;99486.28;;;22.77;53.44
79230;BME280;68663;49.122;17.544;2023-03-20T05:58:25;99489.53;;;22.75;53.45
79230;BME280;68663;49.122;17.544;2023-03-20T06:00:51;99489.56;;;22.72;53.57
79230;BME280;68663;49.122;17.544;2023-03-20T06:03:16;99484.75;;;22.69;53.47
79230;BME280;68663;49.122;17.544;2023-03-20T06:05:43;99492.84;;;22.67;53.39
79230;BME280;68663;49.122;17.544;2023-03-20T06:08:08;99502.50;;;22.66;53.52
79230;BME280;68663;49.122;17.544;2023-03-20T06:10:33;99500.06;;;22.68;53.31
79230;BME280;68663;49.122;17.544;2023-03-20T06:12:59;99504.88;;;22.71;53.03
79230;BME280;68663;49.122;17.544;2023-03-20T06:15:26;99510.47;;;22.74;53.03
79230;BME280;68663;49.122;17.544;2023-03-20T06:17:53;99511.28;;;22.75;53.07
79230;BME280;68663;49.122;17.544;2023-03-20T06:20:19;99526.19;;;22.75;52.90
79230;BME280;68663;49.122;17.544;2023-03-20T06:22:44;99518.13;;;22.74;52.96
79230;BME280;68663;49.122;17.544;2023-03-20T06:25:10;99516.16;;;22.71;53.04
79230;BME280;68663;49.122;17.544;2023-03-20T06:27:36;99520.19;;;22.70;52.95
79230;BME280;68663;49.122;17.544;2023-03-20T06:30:01;99516.53;;;22.73;52.78
79230;BME280;68663;49.122;17.544;2023-03-20T06:32:26;99526.59;;;22.74;52.66
79230;BME280;68663;49.122;17.544;2023-03-20T06:34:52;99516.53;;;22.73;52.69
79230;BME280;68663;49.122;17.544;2023-03-20T06:37:19;99528.22;;;22.71;52.69
79230;BME280;68663;49.122;17.544;2023-03-20T06:39:44;99531.50;;;22.66;52.67
79230;BME280;68663;49.122;17.544;2023-03-20T06:42:10;99529.09;;;22.65;52.84
79230;BME280;68663;49.122;17.544;2023-03-20T06:44:37;99529.47;;;22.67;52.93
79230;BME280;68663;49.122;17.544;2023-03-20T06:47:03;99525.81;;;22.70;52.54
79230;BME280;68663;49.122;17.544;2023-03-20T06:49:28;99522.63;;;22.68;52.70
79230;BME280;68663;49.122;17.544;2023-03-20T06:51:54;99529.09;;;22.65;52.65
79230;BME280;68663;49.122;17.544;2023-03-20T06:54:19;99529.94;;;22.62;52.46
79230;BME280;68663;49.122;17.544;2023-03-20T06:56:45;99528.31;;;22.61;52.61
79230;BME280;68663;49.122;17.544;2023-03-20T06:59:10;99523.06;;;22.63;52.61
79230;BME280;68663;49.122;17.544;2023-03-20T07:01:36;99532.28;;;22.67;52.41
79230;BME280;68663;49.122;17.544;2023-03-20T07:04:01;99536.72;;;22.68;52.51
79230;BME280;68663;49.122;17.544;2023-03-20T07:06:27;99535.50;;;22.69;52.33
79230;BME280;68663;49.122;17.544;2023-03-20T07:08:52;99536.72;;;22.68;52.36
79230;BME280;68663;49.122;17.544;2023-03-20T07:11:18;99534.72;;;22.65;52.46
79230;BME280;68663;49.122;17.544;2023-03-20T07:13:43;99529.09;;;22.65;52.37
79230;BME280;68663;49.122;17.544;2023-03-20T07:18:44;99520.19;;;22.70;52.22
79230;BME280;68663;49.122;17.544;2023-03-20T07:21:16;99518.97;;;22.71;52.16
79230;BME280;68663;49.122;17.544;2023-03-20T07:23:43;99523.38;;;22.72;52.29
79230;BME280;68663;49.122;17.544;2023-03-20T07:26:08;99525.78;;;22.73;52.10
79230;BME280;68663;49.122;17.544;2023-03-20T07:28:34;99521.78;;;22.71;52.18
79230;BME280;68663;49.122;17.544;2023-03-20T07:30:59;99506.50;;;22.68;52.20
79230;BME280;68663;49.122;17.544;2023-03-20T07:33:25;99508.16;;;22.66;52.27
79230;BME280;68663;49.122;17.544;2023-03-20T07:35:52;99524.69;;;22.64;52.32
79230;BME280;68663;49.122;17.544;2023-03-20T07:38:18;99521.06;;;22.63;52.25
79230;BME280;68663;49.122;17.544;2023-03-20T07:40:43;99519.84;;;22.64;52.16
79230;BME280;68663;49.122;17.544;2023-03-20T07:43:09;99531.50;;;22.66;52.13
79230;BME280;68663;49.122;17.544;2023-03-20T07:45:34;99527.47;;;22.67;52.20
79230;BME280;68663;49.122;17.544;2023-03-20T07:47:59;99536.28;;;22.69;52.16
79230;BME280;68663;49.122;17.544;2023-03-20T07:50:25;99531.47;;;22.70;51.97
79230;BME280;68663;49.122;17.544;2023-03-20T07:52:50;99543.50;;;22.74;52.04
79230;BME280;68663;49.122;17.544;2023-03-20T07:55:16;99541.47;;;22.74;51.92
79230;BME280;68663;49.122;17.544;2023-03-20T07:57:42;99542.25;;;22.78;51.80
79230;BME280;68663;49.122;17.544;2023-03-20T08:00:09;99537.84;;;22.77;51.88
79230;BME280;68663;49.122;17.544;2023-03-20T08:02:34;99540.28;;;22.75;51.83
79230;BME280;68663;49.122;17.544;2023-03-20T08:05:00;99545.53;;;22.73;51.90
79230;BME280;68663;49.122;17.544;2023-03-20T08:07:25;99544.34;;;22.71;51.88
79230;BME280;68663;49.122;17.544;2023-03-20T08:09:53;99542.31;;;22.71;52.04
79230;BME280;68663;49.122;17.544;2023-03-20T08:12:19;99552.34;;;22.76;51.82
79230;BME280;68663;49.122;17.544;2023-03-20T08:14:45;99546.28;;;22.77;51.75
79230;BME280;68663;49.122;17.544;2023-03-20T08:17:11;99540.66;;;22.77;51.62
79230;BME280;68663;49.122;17.544;2023-03-20T08:19:36;99540.66;;;22.77;51.62
79230;BME280;68663;49.122;17.544;2023-03-20T08:22:04;99547.94;;;22.75;51.67
79230;BME280;68663;49.122;17.544;2023-03-20T08:24:29;99549.94;;;22.74;51.83
79230;BME280;68663;49.122;17.544;2023-03-20T08:26:55;99546.75;;;22.72;51.83
79230;BME280;68663;49.122;17.544;2023-03-20T08:29:20;99550.75;;;22.75;51.79
79230;BME280;68663;49.122;17.544;2023-03-20T08:31:46;99545.50;;;22.77;51.87
79230;BME280;68663;49.122;17.544;2023-03-20T08:34:11;99542.66;;;22.80;51.55
79230;BME280;68663;49.122;17.544;2023-03-20T08:36:37;99545.06;;;22.82;51.49
79230;BME280;68663;49.122;17.544;2023-03-20T08:39:04;99540.22;;;22.82;51.66
79230;BME280;68663;49.122;17.544;2023-03-20T08:41:31;99540.66;;;22.81;51.71
79230;BME280;68663;49.122;17.544;2023-03-20T08:43:57;99535.41;;;22.83;51.60
79230;BME280;68663;49.122;17.544;2023-03-20T08:46:22;99537.78;;;22.84;51.50
79230;BME280;68663;49.122;17.544;2023-03-20T08:48:48;99540.19;;;22.86;51.49
79230;BME280;68663;49.122;17.544;2023-03-20T08:51:13;99547.44;;;22.87;51.58
79230;BME280;68663;49.122;17.544;2023-03-20T08:53:39;99547.06;;;22.85;51.56
79230;BME280;68663;49.122;17.544;2023-03-20T08:56:05;99547.84;;;22.85;51.62
79230;BME280;68663;49.122;17.544;2023-03-20T08:58:31;99544.22;;;22.85;51.52
79230;BME280;68663;49.122;17.544;2023-03-20T09:00:56;99549.84;;;22.88;51.35
79230;BME280;68663;49.122;17.544;2023-03-20T09:03:27;99542.56;;;22.91;51.34
79230;BME280;68663;49.122;17.544;2023-03-20T09:05:52;99535.31;;;22.90;51.54
79230;BME280;68663;49.122;17.544;2023-03-20T09:08:18;99535.31;;;22.90;51.54
79230;BME280;68663;49.122;17.544;2023-03-20T09:10:46;99531.72;;;22.90;51.56
79230;BME280;68663;49.122;17.544;2023-03-20T09:13:11;99534.53;;;22.90;51.73
79230;BME280;68663;49.122;17.544;2023-03-20T09:15:37;99536.94;;;22.91;51.29
79230;BME280;68663;49.122;17.544;2023-03-20T09:18:02;99534.50;;;22.93;51.38
79230;BME280;68663;49.122;17.544;2023-03-20T09:20:28;99534.50;;;22.93;51.54
79230;BME280;68663;49.122;17.544;2023-03-20T09:22:53;99538.09;;;22.94;51.45
79230;BME280;68663;49.122;17.544;2023-03-20T09:25:20;99548.59;;;22.93;51.54
79230;BME280;68663;49.122;17.544;2023-03-20T09:27:45;99545.38;;;22.91;51.55
79230;BME280;68663;49.122;17.544;2023-03-20T09:30:11;99540.13;;;22.93;51.27
79230;BME280;68663;49.122;17.544;2023-03-20T09:32:37;99532.84;;;22.96;51.20
79230;BME280;68663;49.122;17.544;2023-03-20T09:35:04;99540.09;;;22.97;51.55
79230;BME280;68663;49.122;17.544;2023-03-20T09:37:30;99540.91;;;22.97;51.62
79230;BME280;68663;49.122;17.544;2023-03-20T09:39:55;99536.06;;;22.98;51.56
79230;BME280;68663;49.122;17.544;2023-03-20T09:45:52;99535.63;;;22.99;51.19
79230;BME280;68663;49.122;17.544;2023-03-20T09:48:32;99529.97;;;23.03;51.14
79230;BME280;68663;49.122;17.544;2023-03-20T09:51:05;99536.00;;;23.01;51.38
79230;BME280;68663;49.122;17.544;2023-03-20T09:53:37;99532.41;;;23.01;51.59
79230;BME280;68663;49.122;17.544;2023-03-20T09:56:05;99540.06;;;23.00;51.28
79230;BME280;68663;49.122;17.544;2023-03-20T09:58:38;99523.13;;;23.00;51.53
79230;BME280;68663;49.122;17.544;2023-03-20T10:01:06;99521.91;;;23.01;51.14
79230;BME280;68663;49.122;17.544;2023-03-20T10:03:46;99527.13;;;23.03;51.31
79230;BME280;68663;49.122;17.544;2023-03-20T10:06:14;99523.91;;;23.04;51.15
79230;BME280;68663;49.122;17.544;2023-03-20T10:08:41;99527.13;;;23.03;51.21
79230;BME280;68663;49.122;17.544;2023-03-20T10:14:45;99522.31;;;23.03;51.31
79230;BME280;68663;49.122;17.544;2023-03-20T10:20:00;99515.81;;;23.06;51.17
79230;BME280;68663;49.122;17.544;2023-03-20T10:22:34;99503.75;;;23.06;51.34
79230;BME280;68663;49.122;17.544;2023-03-20T10:25:07;99506.13;;;23.07;51.23
79230;BME280;68663;49.122;17.544;2023-03-20T10:27:51;99499.69;;;23.07;51.27
79230;BME280;68663;49.122;17.544;2023-03-20T10:30:32;99501.31;;;23.08;51.17
79230;BME280;68663;49.122;17.544;2023-03-20T10:35:38;99495.25;;;23.09;50.85
79230;BME280;68663;49.122;17.544;2023-03-20T10:38:26;99494.03;;;23.10;51.01
79230;BME280;68663;49.122;17.544;2023-03-20T10:40:55;99491.97;;;23.14;50.75
79230;BME280;68663;49.122;17.544;2023-03-20T10:43:27;99484.72;;;23.13;50.84
79230;BME280;68663;49.122;17.544;2023-03-20T10:48:29;99481.91;;;23.13;50.91
79230;BME280;68663;49.122;17.544;2023-03-20T10:50:59;99487.53;;;23.13;50.89
79230;BME280;68663;49.122;17.544;2023-03-20T10:56:12;99481.09;;;23.13;51.10
79230;BME280;68663;49.122;17.544;2023-03-20T10:58:41;99479.88;;;23.14;51.02
79230;BME280;68663;49.122;17.544;2023-03-20T11:01:08;99479.06;;;23.13;50.99
79230;BME280;68663;49.122;17.544;2023-03-20T11:03:34;99475.41;;;23.16;50.64
79230;BME280;68663;49.122;17.544;2023-03-20T11:06:16;99471.38;;;23.17;50.85
79230;BME280;68663;49.122;17.544;2023-03-20T11:08:47;99469.78;;;23.16;50.83
79230;BME280;68663;49.122;17.544;2023-03-20T11:11:13;99465.72;;;23.17;50.87
79230;BME280;68663;49.122;17.544;2023-03-20T11:13:45;99477.00;;;23.17;51.03
79230;BME280;68663;49.122;17.544;2023-03-20T11:18:40;99467.31;;;23.18;50.42
79230;BME280;68663;49.122;17.544;2023-03-20T11:21:09;99474.56;;;23.19;50.64
79230;BME280;68663;49.122;17.544;2023-03-20T11:23:37;99465.31;;;23.19;50.90
79230;BME280;68663;49.122;17.544;2023-03-20T11:26:10;99463.28;;;23.19;51.02
79230;BME280;68663;49.122;17.544;2023-03-20T11:28:45;99456.06;;;23.18;51.07
79230;BME280;68663;49.122;17.544;2023-03-20T11:36:22;99445.59;;;23.15;50.95
79230;BME280;68663;49.122;17.544;2023-03-20T11:38:49;99447.22;;;23.16;50.79
79230;BME280;68663;49.122;17.544;2023-03-20T11:41:23;99444.38;;;23.16;50.91
79230;BME280;68663;49.122;17.544;2023-03-20T11:43:49;99440.34;;;23.17;50.87
79230;BME280;68663;49.122;17.544;2023-03-20T11:46:14;99447.22;;;23.16;50.95
79230;BME280;68663;49.122;17.544;2023-03-20T11:48:42;99442.00;;;23.15;50.89
79230;BME280;68663;49.122;17.544;2023-03-20T11:51:14;99441.56;;;23.16;51.06
79230;BME280;68663;49.122;17.544;2023-03-20T11:56:25;99431.13;;;23.13;50.85
79230;BME280;68663;49.122;17.544;2023-03-20T11:59:03;99429.47;;;23.16;50.62
79230;BME280;68663;49.122;17.544;2023-03-20T12:01:41;99421.41;;;23.18;50.53
79230;BME280;68663;49.122;17.544;2023-03-20T12:04:32;99416.19;;;23.16;50.97
79230;BME280;68663;49.122;17.544;2023-03-20T12:10:13;99412.66;;;23.09;51.13
79230;BME280;68663;49.122;17.544;2023-03-20T12:12:53;99407.00;;;23.09;51.08
79230;BME280;68663;49.122;17.544;2023-03-20T12:15:32;99409.78;;;23.12;50.74
79230;BME280;68663;49.122;17.544;2023-03-20T12:21:03;99403.72;;;23.14;50.93
79230;BME280;68663;49.122;17.544;2023-03-20T12:23:36;99400.09;;;23.13;50.82
79230;BME280;68663;49.122;17.544;2023-03-20T12:26:05;99387.22;;;23.12;51.03
79230;BME280;68663;49.122;17.544;2023-03-20T12:28:55;99398.13;;;23.10;51.04
79230;BME280;68663;49.122;17.544;2023-03-20T12:31:29;99395.34;;;23.07;51.10
79230;BME280;68663;49.122;17.544;2023-03-20T12:34:25;99391.75;;;23.06;50.66
79230;BME280;68663;49.122;17.544;2023-03-20T12:36:53;99397.38;;;23.06;50.73
79230;BME280;68663;49.122;17.544;2023-03-20T12:39:26;99394.13;;;23.08;50.95
79230;BME280;68663;49.122;17.544;2023-03-20T12:45:14;99390.13;;;23.05;50.88
79230;BME280;68663;49.122;17.544;2023-03-20T12:50:30;99392.22;;;23.01;51.05
79230;BME280;68663;49.122;17.544;2023-03-20T12:58:53;99389.34;;;23.05;50.63
79230;BME280;68663;49.122;17.544;2023-03-20T13:01:52;99384.56;;;23.02;51.01
79230;BME280;68663;49.122;17.544;2023-03-20T13:04:46;99389.38;;;23.01;50.89
79230;BME280;68663;49.122;17.544;2023-03-20T13:07:34;99383.00;;;22.97;50.99
79230;BME280;68663;49.122;17.544;2023-03-20T13:10:11;99378.19;;;22.94;50.93
79230;BME280;68663;49.122;17.544;2023-03-20T13:15:51;99372.56;;;22.94;48.63
79230;BME280;68663;49.122;17.544;2023-03-20T13:18:46;99375.84;;;22.89;47.97
79230;BME280;68663;49.122;17.544;2023-03-20T13:21:31;99364.66;;;22.82;44.53
79230;BME280;68663;49.122;17.544;2023-03-20T13:24:21;99372.31;;;22.78;42.84
79230;BME280;68663;49.122;17.544;2023-03-20T13:29:45;99362.34;;;22.70;39.68
79230;BME280;68663;49.122;17.544;2023-03-20T13:32:39;99369.22;;;22.69;38.54
79230;BME280;68663;49.122;17.544;2023-03-20T13:38:00;99370.91;;;22.63;38.09
79230;BME280;68663;49.122;17.544;2023-03-20T13:40:29;99374.50;;;22.63;38.27
79230;BME280;68663;49.122;17.544;2023-03-20T13:43:03;99370.53;;;22.61;38.26
79230;BME280;68663;49.122;17.544;2023-03-20T13:45:33;99372.97;;;22.59;38.42
79230;BME280;68663;49.122;17.544;2023-03-20T13:48:09;99370.13;;;22.59;38.33
79230;BME280;68663;49.122;17.544;2023-03-20T13:50:45;99366.09;;;22.60;39.10
79230;BME280;68663;49.122;17.544;2023-03-20T13:56:27;99363.25;;;22.63;40.68
79230;BME280;68663;49.122;17.544;2023-03-20T13:59:14;99363.63;;;22.65;41.33
79230;BME280;68663;49.122;17.544;2023-03-20T14:02:17;99367.25;;;22.66;41.81
79230;BME280;68663;49.122;17.544;2023-03-20T14:04:44;99361.97;;;22.68;42.22
79230;BME280;68663;49.122;17.544;2023-03-20T14:09:55;99360.00;;;22.65;42.98
79230;BME280;68663;49.122;17.544;2023-03-20T14:12:25;99366.44;;;22.65;43.43
79230;BME280;68663;49.122;17.544;2023-03-20T14:14:57;99361.59;;;22.66;43.81
79230;BME280;68663;49.122;17.544;2023-03-20T14:17:25;99361.97;;;22.68;43.93
79230;BME280;68663;49.122;17.544;2023-03-20T14:19:53;99363.19;;;22.67;44.30
79230;BME280;68663;49.122;17.544;2023-03-20T14:24:56;99363.63;;;22.65;44.58
79230;BME280;68663;49.122;17.544;2023-03-20T14:27:25;99362.41;;;22.66;44.81
79230;BME280;68663;49.122;17.544;2023-03-20T14:29:52;99366.41;;;22.69;45.02
79230;BME280;68663;49.122;17.544;2023-03-20T14:34:49;99362.34;;;22.70;45.45
79230;BME280;68663;49.122;17.544;2023-03-20T14:37:26;99365.97;;;22.70;45.49
79230;BME280;68663;49.122;17.544;2023-03-20T14:39:53;99360.75;;;22.69;45.60
79230;BME280;68663;49.122;17.544;2023-03-20T14:48:30;99362.34;;;22.70;46.30
79230;BME280;68663;49.122;17.544;2023-03-20T14:53:43;99351.94;;;22.67;46.43
79230;BME280;68663;49.122;17.544;2023-03-20T14:56:13;99354.75;;;22.67;46.48
79230;BME280;68663;49.122;17.544;2023-03-20T14:58:47;99352.72;;;22.67;46.54
79230;BME280;68663;49.122;17.544;2023-03-20T15:03:49;99346.28;;;22.67;46.98